Timeline UpdatesTrip UpdatesNews PostsPvt Posts♥♥Travel TipsAdmin PostsConv PostsFollowed PostsChat RequestsBlog PostsPNR Posts

Disclaimer
Search
 
 
Thu Oct 23, 2014 09:16:31 ISTHomeTrainsΣChainsAtlasPNRForumGalleryNewsFAQTripsMembersLoginFeedback
No Recent News for this Train
Other Trains in the News **new
Latest...
.
Sat Feb 02, 2013 (04:11PM)
⇐ Return Journey: Train# 51188

51187/Bhusaval Katni Passenger (UnReserved)

Time-Table HAS CHANGED.
Sep 30 (9:25PM)
Change Departure Station:
Change Arrival Station:
Post a Train Travel TipPost a Train Travel Tip **new
Post a Comment/Question/Picture/VideoPost a Comment/Question/Picture/Video
Pantry/Catering
✕ NO Pantry Car
✕ NO Catering
RSA - Rake Sharing
Rake/Coach Composition
Loco
BSL-ET: BSL/ET WAP-4 ET-KTE: ET/KTE WDM-3A
News    PNR    Forum    Time-Table    Availability    Fare Chart    Map    Arr/Dep History    Trips    Gallery    ΣChains    X/O    Timeline    
Travel Time: 16h 30m    65 halts    Distance: 579 km    Avg Speed: 35 km/hr
Type: Passenger
Zone: CR/Central
Departs @ 10:55 (Avg 54m late)
Platform# ???
SMTWTFS
Asirgarh Road/AGQ 
Arrives @ 03:25 +1 night (Avg 3h 15m late)
Platform# ???
SMTWTFS
Katni Junction/KTE 

65 halts. 71 intermediate Stations between Asirgarh Road and Katni Junction

Show ALL intermediate Stations  Show Old Time-Table

#TrkCodeStation NameX/OArrivesAvgDepartsAvgHaltPFDay#KmSpeedElevZoneAddress
1/==/BSLBhusaval Junction (8)  -09:30+28--1-63.437208mCRBhusaval 425201, Maharashtra
2/==/DSKDuskheda (2)X  09:41+3909:42+401m--1-56.747213mCRDuskheda Station, Maharashtra
3/==/SAVSavda (2)X  09:53+3809:54+391m--1-48.048220mCRSavda, Maharashtra
4/==/NBNimbhora (2)  10:05+3810:06+401m--1-39.355229mCRJalgaon, Maharashtra
5/==/RVRaver (2)  10:17+4010:18+451m--1-29.154242mCRJalgaon, Maharashtra
6/==/WGAWaghodaX  10:29+4510:30+471m--1-19.244259mCRChorwad, Maharashtra
7/==/BAUBurhanpur (2)X  10:44+3810:45+421m21-8.960269mCRBurhanpur, Madhya Pradesh
8/==/AGQAsirgarh Road (2)»  10:54+5010:55+541m--10.068259mCRState Highway 27, Madhya Pradesh
9/==/CDIChandni (2)X  11:04+5411:05+551m--110.247276mCRNepanagar Rd, Madhya Pradesh
10/==/NPNRNepanagar (2)  11:14+5711:15+1:001m--117.350289mCRState Highway 27, Madhya Pradesh
11/==/MWAMandwa (2)X  11:22+5811:23+581m--123.160317mCRState Highway 27, Madhya Pradesh
12/==/SXASagphata (2)  11:29+1:0011:30+1:011m--129.166350mCRKhandwa, Madhya Pradesh
13/==/DGNDongargaon (2)X  11:37+1:0211:38+1:031m2136.891373mCRBorgaon, Madhya Pradesh
14/==/KDKKohdad (2)X  11:43+1:0311:44+1:031m--144.453344mCRState Highway 15, Madhya Pradesh
15/==/BMABagmar (2)X  11:49+1:0511:50+1:121m--148.890335mCRState Highway 27, Madhya Pradesh
16/==/BRGJBargaon Gujar (2)X  11:54+1:1511:55+1:151m--154.87316mCRKhandwa, Madhya Pradesh
17/==/KNWKhandwa Junction (5)X  12:50 12:40+3512:55 12:45+395m--159.918310mCRKhandwa, Madhya Pradesh
18/==/MTAMathela (2)  13:05 13:09+4413:06 13:11+441 2m--167.363322mWCRKhandwa, Madhya Pradesh
19/==/TLVTalvadiya (2)  13:15 13:19+4513:16 13:21+451 2m--175.779308mWCRKhandwa, Madhya Pradesh
20/==/SGBJSurgaon Banjari (2)  13:26 13:30+4613:27 13:32+461 2m--187.483298mWCRKhandwa, Madhya Pradesh
21/==/CKKDCharkheda Khurd (2)  13:36 13:40+4913:37 13:42+491 2m--198.658274mWCRKhandwa, Madhya Pradesh
22/==/CAERChhanera (2)X  13:45 13:49+5013:46 13:51+511 2m--1105.468283mWCRChhanera, Madhya Pradesh
23/==/BRUDBarud (2)X  13:56 14:00+5213:57 14:02+531 2m--1115.564273mWCRKhandwa, Madhya Pradesh
24/==/DRHIDagarhkeri (2)X  14:07 14:11+5314:08 14:13+531 2m--1125.173274mWCRState Highway 15, Madhya Pradesh
25/==/KKNKhirkiya (2)X  14:18 14:22+5014:19 14:24+521 2m21136.048281mWCRSH 15, Madhya Pradesh
26/==/KROKurawan (2)  14:27 14:32-14:29 14:34-2m--1142.444297mWCRSH 15, Madhya Pradesh
27/==/BRIBhiringi (2)X  14:39 14:43+4914:40 14:45+491 2m--1149.152294mWCRSH 15, Madhya Pradesh
28/==/MUOMasangaon (2)  14:47 14:51+5114:48 14:53+511 2m--1154.259303mWCRSH 15, Madhya Pradesh
29/==/PALPalasner (2)  14:55 14:59+5014:56 15:01+511 2m--1160.249296mWCRHarda, Madhya Pradesh
30/==/HDHarda (3)X  15:06 15:10+1:0615:07 15:12+1:111 2m--1167.660289mWCRHarda, Madhya Pradesh
31/==/CRKCharkhera (2)  15:15 15:19+5615:16 15:21+581 2m--1174.661298mWCRBarkalan, Madhya Pradesh
32/==/TBNTimarni (2)X  15:24 15:28+5415:25 15:30+561 2m--1181.771308mWCRTimarni, Madhya Pradesh
33/==/CGOChhidgaon (2)  15:33 15:38-15:35 15:40-2m--1191.241309mWCRHarda, Madhya Pradesh
34/==/PGLPagdhal (2)X  15:42 15:46+5815:43 15:48+1:011 2m--1195.363317mWCRPagdhal, Madhya Pradesh
35/==/BIFBhaironpur (2)X  15:51 15:55+1:0015:52 15:57+1:001 2m--1202.663322mWCRSH 15, Madhya Pradesh
36/==/BPFBanapura (2)  16:00 16:04+4316:01 16:06+521 2m--1209.962314mWCRBanapura, Madhya Pradesh
37/==/DKIDharamkundi (2)X  16:10 16:14+5216:11 16:16+521 2m--1218.163314mWCRSH 15, Madhya Pradesh
38/==/KTZKhutwansa (2)  16:19 16:23-16:20 16:25-1 2m--1225.542325mWCRSH 15, Madhya Pradesh
39/==/DRADularia (2)O  16:29 16:33+4716:30 16:35+591 2m--1231.113318mWCRItarsi, Madhya Pradesh
40/==/ETItarsi Junction (7)XO  17:30+3317:50+3420m--1243.463329mWCRItarsi 461111, Madhya Pradesh
41|==|GROGurra (2)  18:00+1:2218:02+1:222m--1253.960327mWCRItarsi, Madhya Pradesh
42|=-|SQLSontalai (2)  18:11+1:2318:13+1:322m--1262.946329mWCRItarsi, Madhya Pradesh
43|-=|BGTABagratawa (2)X  18:22+1:3418:24+1:402m--1269.871338mWCRBagra Tawa, Madhya Pradesh
44|==|GMDGuramkhedi (2)  18:35+1:4018:37+1:412m--1282.860337mWCRGuramkhedi, Madhya Pradesh
45|==|SGPSohagpur (2)X  18:47+1:4318:49+1:452m--1292.960340mWCRSohagpur, Madhya Pradesh
46|==|SXFSobhapur (2)  18:58-19:00-2m--1302.040338mWCRState Highway 22, Madhya Pradesh
47|==|PPIPipariya (3)X  19:08 19:13+1:0919:09 19:15+1:251 2m31310.665338mWCRPiparia, Madhya Pradesh
48|==|BKHBankhedi (2)  19:24 19:33+2:1619:25 19:35+2:241 2m--1330.071351mWCRBankheri, Madhya Pradesh
49|==|JHTJunehta (2)X  19:33 19:40-19:34 19:42-1 2m--1335.976353mWCRState Highway 22, Madhya Pradesh
50|==|SCKRSalichauka Road (2)X  19:44 19:50+2:2619:45 19:52+2:381 2m--1346.183355mWCRGadarwara, Madhya Pradesh
51|==|GARGadarwara (2)  19:57 20:02+2:4019:58 20:04+2:521 2m11360.0111352mWCRNarsinghpur, Madhya Pradesh
52|==|BNEBohani (2)  20:10 20:11+2:5620:11 20:13+3:151 2m21372.970361mWCRNarsinghpur, Madhya Pradesh
53|==|KFYKarapgaon (2)O  20:20 20:19-20:21-1 2m--1379.943363mWCRNational Highway 26, Madhya Pradesh
54|==|KYKareli (2)X  20:34 20:33+2:0620:35+2:141 2m11388.541361mWCRKareli, Madhya Pradesh
55|==|NUNarsinghpur (2)  20:58+1:5021:00+1:552m11404.358365mWCRNarsimhapur, Madhya Pradesh
56|==!GPCGhatpindrai (2)  21:07 21:06+3:2921:08+3:361 2m--1410.141366mWCRGhatpindra, Madhya Pradesh
57!==|BELDBelkhera (2)  21:17 21:16+3:3521:18+3:361 2m--1415.633367mWCRState Highway 22, Madhya Pradesh
58!==|KKBKarak Bel (2)XO  21:26+3:3421:28+3:382m11420.012375mWCRKarak Bel, Madhya Pradesh
59|==|SRIDShridham (3)  22:38 22:43+1:5022:40 22:45+1:532m21435.588373mWCRShridham, Madhya Pradesh
60|==|BMRBikrampur (2)X  22:53+2:4222:54 22:55+2:421 2m--1447.287353mWCRBikrampur Dist Narsingpur., Madhya Pradesh
61|==|BHTNBhitoni (2)  23:06 23:03+2:4423:07 23:05+2:451 2m--1458.861377mWCRJabalpur, Madhya Pradesh
62|==|BRGTBheraghat (2)X  23:19 23:18+2:4323:20+2:451 2m--1471.916389mWCRBheraghat, Madhya Pradesh
63|==|MMLMadan Mahal (3)O  00:03 00:08+2:1400:05 00:10+2:162m32485.08428mWCRJabalpur, Madhya Pradesh
64|==|JBPJabalpur Junction (4)X  00:40 00:35+1:4700:50 00:45+1:5410m22488.331416mWCRJabalpur, Madhya Pradesh
65|==|ADTLAdhartal (2)  01:01+2:2601:03+2:262m--2496.559393mWCRJabalpur, Madhya Pradesh
66|==|DOEDeori (2)X  01:12+2:2701:14+2:272m--2505.363392mWCRJabalpur, Madhya Pradesh
67|==|GSPRGosalpur (2)X  01:24+2:2501:26+2:292m--2515.874396mWCRJabalpur, Madhya Pradesh
68|==|SHRSihora Road (2)X  01:35+2:1501:37+2:252m--2526.975388mWCRJabalpur, Madhya Pradesh
69|==|DDCEDundi (2)O  01:49+2:4301:51+2:432m--2541.963415mWCRDundi, Madhya Pradesh
70|==|SBDSleemanabad Road (2)XO  01:59 02:00+2:0002:01+2:002 1m--2551.441434mWCRSleemanabad, Madhya Pradesh
71|==|SNRRSansarpur (2)X  02:11-02:13-2m--2558.319436mWCRNational Highway 7, Madhya Pradesh
72|==|NWRNiwar (2)X  02:39 02:38+2:2102:40+2:271 2m--2566.068412mWCRPipraundh, Madhya Pradesh
73|==|MDRRMadhavnagar Road (2)X  02:47-02:49-2m--2573.99398mWCRMadhavnagar, Madhya Pradesh
74%==|KTEKatni Junction (6)•  03:25+3:15---2579.2-387mWCRKatni, Madhya Pradesh
Scroll to Top
Scroll to Bottom